34M weather

Campbell Municipal Airport
Campbell, Missouri, United States

Public forecast

Using degrees Fahrenheit for public forecast. Weather courtesy of forecast.io.

METAR (pilot weather report)

Closest report is Kennett Memorial Airport, 15.7 nm (29.1 km) S. Retrieved 2019/05/22 10:35 UTC (22 minutes ago):

KTKX 221035Z AUTO 16011KT 6SM BR SCT005 BKN055 OVC080 18/18 A2983 RMK AO2 LTG DSNT SW

TAF (pilot weather forecast)

Closest forecast is Cape Girardeau Regional Airport, 49.1 nm (90.9 km) NNE. Retrieved 2019/05/22 06:22 UTC (5 hours ago):

TAF KCGI 220520Z 2206/2306 25007KT 6SM SHRA BR OVC035 FM221100 17008KT P6SM VCSH BKN030 FM221300 17009KT P6SM BKN040 FM221700 19012G20KT P6SM BKN070 FM222000 20013KT P6SM FEW200